Главная страница
METAR-TAF:

METAR-TAF

Аэропорты :

Актау, Казахстан

широта: 43-52-12N, долгота: 051-06E, высота над уровнем моря: 22 м

Текущие метеонаблюдения

Эта сводка был подготовлена 18 минут назад, в 04:30 UTC
Ветер 12 Узел от восточный
Температура -14°C
Влажность 78%
Давление 1025 hPa
Видимость 10 км и более
Нет облачности ниже 1500 м, и нет кучево-дождевой облачности

METAR: UATE 170430Z 08006MPS CAVOK M14/M17 Q1025 R12/0///70 NOSIG RMK QFE767/1023

Время: 09:48 (04:48 UTC)

Прогноз

Эта сводка был подготовлена 5 часа и 47 минут назад, в 23:01 UTC
Прогноз действительный с 17-го 00 UTC до 17-го 24 UTC
Ветер 12 Узел от восточный
Видимость 10 км и более
Нет облачности ниже 1500 м, и нет кучево-дождевой облачности

TAF: UATE 162301Z 1700/1724 08006MPS CAVOK TXM03/1709Z TNM15/1702Z

Метеонаблюдения и прогнозы для более 4000 аэропортов (сводки METAR и TAF).

Имеющиеся станции представлены на карте желтыми и красными точками.

Чтобы увидеть название станции, наведите на нее мышь.

Затем щелкните, чтобы увидеть метеонаблюдения и метеопрогнозы.

Управление картой: чтобы увеличить масштаб, щелкните зеленые кнопки с черным крестиком; чтобы уменьшить масштаб, щелкните зеленую кнопку с тире; для просмотра соседних карт щелкайте зеленые стрелки.


METAR-TAF: